createdAt,value
2018-09-22T00:00:16.912Z,2.10
2018-09-22T00:01:16.891Z,1.80
2018-09-22T00:02:16.833Z,1.90
2018-09-22T00:03:16.740Z,1.80
2018-09-22T00:04:16.693Z,1.50
2018-09-22T00:05:16.639Z,2.00
2018-09-22T00:06:16.600Z,1.80
2018-09-22T00:07:16.558Z,1.60
2018-09-22T00:08:16.488Z,1.50
2018-09-22T00:09:16.435Z,1.50
2018-09-22T00:10:16.383Z,1.50
2018-09-22T00:11:23.529Z,1.70
2018-09-22T00:12:16.287Z,1.60
2018-09-22T00:13:16.229Z,1.70
2018-09-22T00:14:16.176Z,1.70
2018-09-22T00:15:16.128Z,1.80
2018-09-22T00:16:16.078Z,1.60
2018-09-22T00:17:16.047Z,1.60
2018-09-22T00:18:15.974Z,1.70
2018-09-22T00:19:15.931Z,1.70
2018-09-22T00:20:15.871Z,1.80
2018-09-22T00:21:15.821Z,1.50
2018-09-22T00:22:15.794Z,1.70
2018-09-22T00:23:15.723Z,1.60
2018-09-22T00:24:15.668Z,1.70
2018-09-22T00:25:15.616Z,1.60
2018-09-22T00:26:15.569Z,1.90
2018-09-22T00:27:15.621Z,1.90
2018-09-22T00:28:15.467Z,1.90
2018-09-22T00:29:15.411Z,2.00
2018-09-22T00:30:15.363Z,1.60
2018-09-22T00:31:15.308Z,1.70
2018-09-22T00:32:15.286Z,1.90
2018-09-22T00:33:15.207Z,1.90
2018-09-22T00:34:15.154Z,1.80
2018-09-22T00:35:15.110Z,1.90
2018-09-22T00:36:15.055Z,1.90
2018-09-22T00:37:15.022Z,2.00
2018-09-22T00:38:14.957Z,2.00
2018-09-22T00:39:14.899Z,1.80
2018-09-22T00:40:14.853Z,1.90
2018-09-22T00:41:14.802Z,1.90
2018-09-22T00:42:14.769Z,1.80
2018-09-22T00:43:14.694Z,2.00
2018-09-22T00:44:14.648Z,1.90
2018-09-22T00:45:14.593Z,2.10
2018-09-22T00:46:14.541Z,1.90
2018-09-22T00:47:14.519Z,1.70
2018-09-22T00:48:14.442Z,2.10
2018-09-22T00:49:14.389Z,2.00
2018-09-22T00:50:14.339Z,2.00
2018-09-22T00:51:14.287Z,2.00
2018-09-22T00:52:14.258Z,1.90
2018-09-22T00:53:14.183Z,2.00
2018-09-22T00:54:14.136Z,1.90
2018-09-22T00:55:14.082Z,1.90
2018-09-22T00:56:14.034Z,2.10
2018-09-22T00:57:14.010Z,2.10
2018-09-22T00:58:13.927Z,1.80
2018-09-22T00:59:13.880Z,2.00
2018-09-22T01:00:13.828Z,2.00
2018-09-22T01:01:13.785Z,2.50
2018-09-22T01:02:13.749Z,2.00
2018-09-22T01:03:13.672Z,2.00
2018-09-22T01:04:13.622Z,2.00
2018-09-22T01:05:13.572Z,1.90
2018-09-22T01:06:13.517Z,1.70
2018-09-22T01:07:13.495Z,1.80
2018-09-22T01:08:13.416Z,1.80
2018-09-22T01:09:13.366Z,2.20
2018-09-22T01:10:13.316Z,1.80
2018-09-22T01:11:13.264Z,1.90
2018-09-22T01:12:13.239Z,2.00
2018-09-22T01:13:13.163Z,2.10
2018-09-22T01:14:13.112Z,1.80
2018-09-22T01:15:13.061Z,1.90
2018-09-22T01:16:13.021Z,1.90
2018-09-22T01:17:12.979Z,1.60
2018-09-22T01:18:12.908Z,1.70
2018-09-22T01:19:12.857Z,1.60
2018-09-22T01:20:12.805Z,1.90
2018-09-22T01:21:12.756Z,1.90
2018-09-22T01:22:12.728Z,2.00
2018-09-22T01:23:12.652Z,1.80
2018-09-22T01:24:12.600Z,2.00
2018-09-22T01:25:12.546Z,1.70
2018-09-22T01:26:12.510Z,1.60
2018-09-22T01:27:12.487Z,1.80
2018-09-22T01:28:12.397Z,2.00
2018-09-22T01:29:12.350Z,2.20
2018-09-22T01:30:12.298Z,1.70
2018-09-22T01:31:12.242Z,1.70
2018-09-22T01:32:12.190Z,1.70
2018-09-22T01:33:12.166Z,1.80
2018-09-22T01:34:12.091Z,1.70
2018-09-22T01:35:12.048Z,1.70
2018-09-22T01:36:11.985Z,1.80
2018-09-22T01:37:11.943Z,2.00
2018-09-22T01:38:11.909Z,1.80
2018-09-22T01:39:11.831Z,2.00
2018-09-22T01:40:11.785Z,1.70
2018-09-22T01:41:11.738Z,1.70
2018-09-22T01:42:11.682Z,1.60
2018-09-22T01:43:11.658Z,1.80
2018-09-22T01:44:11.580Z,1.70
2018-09-22T01:45:11.528Z,1.70
2018-09-22T01:46:11.477Z,1.90
2018-09-22T01:47:11.426Z,1.90
2018-09-22T01:48:11.399Z,1.50
2018-09-22T01:49:11.324Z,1.70
2018-09-22T01:50:11.271Z,1.70
2018-09-22T01:51:11.226Z,1.60
2018-09-22T01:52:11.177Z,1.50
2018-09-22T01:53:11.150Z,2.00
2018-09-22T01:54:11.069Z,1.50
2018-09-22T01:55:11.018Z,1.70
2018-09-22T01:56:10.966Z,1.80
2018-09-22T01:57:10.917Z,1.60
2018-09-22T01:58:10.887Z,1.50
2018-09-22T01:59:10.813Z,1.70
2018-09-22T02:00:10.762Z,1.70
2018-09-22T02:01:10.710Z,1.80
2018-09-22T02:02:10.666Z,1.80
2018-09-22T02:03:10.635Z,1.70
2018-09-22T02:04:10.567Z,2.00
2018-09-22T02:05:10.512Z,1.30
2018-09-22T02:06:10.453Z,1.80
2018-09-22T02:07:10.405Z,1.50
2018-09-22T02:08:10.372Z,1.60
2018-09-22T02:09:10.304Z,1.70
2018-09-22T02:10:10.257Z,1.40
2018-09-22T02:11:10.201Z,1.90
2018-09-22T02:12:10.156Z,1.50
2018-09-22T02:13:10.122Z,1.90
2018-09-22T02:14:10.056Z,1.70
2018-09-22T02:15:09.998Z,1.50
2018-09-22T02:16:09.946Z,1.50
2018-09-22T02:17:09.891Z,1.30
2018-09-22T02:18:09.863Z,1.90
2018-09-22T02:19:09.793Z,1.50
2018-09-22T02:20:09.739Z,1.60
2018-09-22T02:21:09.688Z,1.50
2018-09-22T02:22:09.636Z,1.80
2018-09-22T02:23:09.624Z,1.80
2018-09-22T02:24:09.540Z,1.80
2018-09-22T02:25:09.491Z,1.70
2018-09-22T02:26:09.433Z,1.70
2018-09-22T02:27:09.381Z,1.70
2018-09-22T02:28:09.352Z,1.70
2018-09-22T02:29:09.280Z,1.80
2018-09-22T02:30:09.228Z,1.80
2018-09-22T02:31:09.177Z,1.70
2018-09-22T02:32:09.127Z,1.80
2018-09-22T02:33:09.100Z,1.60
2018-09-22T02:34:09.028Z,1.50
2018-09-22T02:35:08.973Z,1.50
2018-09-22T02:36:08.930Z,1.80
2018-09-22T02:37:08.871Z,1.40
2018-09-22T02:38:08.843Z,1.50
2018-09-22T02:39:08.771Z,1.60
2018-09-22T02:40:08.715Z,1.70
2018-09-22T02:41:08.671Z,1.50
2018-09-22T02:42:08.618Z,1.50
2018-09-22T02:43:08.584Z,1.80
2018-09-22T02:44:08.511Z,1.70
2018-09-22T02:45:08.458Z,1.80
2018-09-22T02:46:08.413Z,1.60
2018-09-22T02:47:08.357Z,1.50
2018-09-22T02:48:08.329Z,1.60
2018-09-22T02:49:08.257Z,1.60
2018-09-22T02:50:08.208Z,1.70
2018-09-22T02:51:08.152Z,1.50
2018-09-22T02:52:08.106Z,1.70
2018-09-22T02:53:08.073Z,1.60
2018-09-22T02:54:08.005Z,1.70
2018-09-22T02:55:07.949Z,1.50
2018-09-22T02:56:07.898Z,1.80
2018-09-22T02:57:07.845Z,1.50
2018-09-22T02:58:07.841Z,1.60
2018-09-22T02:59:07.745Z,1.70
2018-09-22T03:00:07.695Z,1.60
2018-09-22T03:01:07.641Z,1.50
2018-09-22T03:02:07.591Z,1.60
2018-09-22T03:03:07.539Z,1.70
2018-09-22T03:04:07.525Z,1.40
2018-09-22T03:05:07.438Z,1.70
2018-09-22T03:06:07.398Z,1.40
2018-09-22T03:07:07.362Z,1.40
2018-09-22T03:08:07.291Z,1.70
2018-09-22T03:09:07.272Z,1.50
2018-09-22T03:10:07.192Z,1.70
2018-09-22T03:11:07.145Z,1.50
2018-09-22T03:12:07.080Z,1.80
2018-09-22T03:13:07.030Z,1.60
2018-09-22T03:14:07.000Z,1.70
2018-09-22T03:15:06.926Z,1.80
2018-09-22T03:16:06.876Z,1.70
2018-09-22T03:17:06.823Z,1.30
2018-09-22T03:18:06.783Z,1.60
2018-09-22T03:19:06.748Z,1.50
2018-09-22T03:20:06.672Z,1.50
2018-09-22T03:21:06.618Z,1.80
2018-09-22T03:22:06.575Z,1.60
2018-09-22T03:23:06.518Z,1.70
2018-09-22T03:24:06.490Z,1.60
2018-09-22T03:25:06.414Z,1.80
2018-09-22T03:26:06.366Z,1.90
2018-09-22T03:27:06.311Z,2.10
2018-09-22T03:28:06.262Z,1.90
2018-09-22T03:29:06.238Z,1.80
2018-09-22T03:30:06.159Z,1.80
2018-09-22T03:31:06.109Z,1.80
2018-09-22T03:32:06.060Z,1.70
2018-09-22T03:33:06.010Z,1.80
2018-09-22T03:34:05.974Z,1.80
2018-09-22T03:35:05.907Z,1.80
2018-09-22T03:36:05.854Z,2.10
2018-09-22T03:37:05.803Z,1.60
2018-09-22T03:38:05.754Z,2.00
2018-09-22T03:39:05.725Z,1.80
2018-09-22T03:40:05.651Z,1.80
2018-09-22T03:41:05.595Z,1.60
2018-09-22T03:42:05.548Z,1.90
2018-09-22T03:43:05.496Z,1.80
2018-09-22T03:44:05.474Z,1.80
2018-09-22T03:45:05.391Z,2.00
2018-09-22T03:46:05.362Z,1.90
2018-09-22T03:47:05.295Z,1.70
2018-09-22T03:48:05.242Z,1.80
2018-09-22T03:49:05.213Z,1.90
2018-09-22T03:50:05.139Z,2.00
2018-09-22T03:51:05.093Z,2.00
2018-09-22T03:52:05.033Z,1.80
2018-09-22T03:53:04.982Z,2.30
2018-09-22T03:54:04.954Z,1.80
2018-09-22T03:55:04.881Z,2.10
2018-09-22T03:56:04.830Z,1.80
2018-09-22T03:57:04.780Z,1.90
2018-09-22T03:58:04.733Z,2.20
2018-09-22T03:59:04.699Z,2.20
2018-09-22T04:00:04.628Z,1.90
2018-09-22T04:01:04.573Z,2.20
2018-09-22T04:02:04.524Z,1.90
2018-09-22T04:03:04.473Z,1.90
2018-09-22T04:04:04.445Z,1.90
2018-09-22T04:05:04.372Z,2.20
2018-09-22T04:06:04.321Z,2.30
2018-09-22T04:07:04.269Z,2.10
2018-09-22T04:08:04.222Z,2.20
2018-09-22T04:09:04.189Z,2.30
2018-09-22T04:10:04.113Z,2.40
2018-09-22T04:11:04.065Z,2.20
2018-09-22T04:12:04.015Z,2.30
2018-09-22T04:13:03.961Z,2.50
2018-09-22T04:14:03.928Z,2.50
2018-09-22T04:15:03.864Z,2.50
2018-09-22T04:16:03.812Z,2.80
2018-09-22T04:17:03.757Z,2.60
2018-09-22T04:18:03.705Z,2.30
2018-09-22T04:19:03.683Z,2.60
2018-09-22T04:20:03.604Z,2.70
2018-09-22T04:21:03.551Z,2.70
2018-09-22T04:22:03.506Z,2.90
2018-09-22T04:23:03.451Z,2.90
2018-09-22T04:24:03.428Z,2.90
2018-09-22T04:25:03.349Z,3.40
2018-09-22T04:26:03.292Z,3.00
2018-09-22T04:27:03.246Z,3.10
2018-09-22T04:28:03.196Z,3.30
2018-09-22T04:29:03.141Z,3.40
2018-09-22T04:30:03.118Z,3.50
2018-09-22T04:31:03.043Z,3.30
2018-09-22T04:32:02.991Z,3.20
2018-09-22T04:33:02.936Z,3.40
2018-09-22T04:34:02.886Z,3.20
2018-09-22T04:35:02.859Z,3.40
2018-09-22T04:36:02.787Z,2.90
2018-09-22T04:37:02.733Z,3.30
2018-09-22T04:38:02.687Z,3.20
2018-09-22T04:39:02.630Z,3.40
2018-09-22T04:40:02.603Z,3.60
2018-09-22T04:41:02.535Z,3.30
2018-09-22T04:42:02.523Z,3.40
2018-09-22T04:43:02.425Z,3.30
2018-09-22T04:44:02.372Z,3.30
2018-09-22T04:45:02.346Z,3.30
2018-09-22T04:46:09.501Z,3.10
2018-09-22T04:47:02.216Z,3.10
2018-09-22T04:48:02.175Z,3.40
2018-09-22T04:49:02.118Z,3.10
2018-09-22T04:50:02.090Z,3.10
2018-09-22T04:51:02.016Z,3.20
2018-09-22T04:52:01.966Z,3.30
2018-09-22T04:53:01.911Z,3.20
2018-09-22T04:54:01.870Z,3.00
2018-09-22T04:55:01.833Z,3.20
2018-09-22T04:56:01.761Z,3.10
2018-09-22T04:57:01.706Z,3.30
2018-09-22T04:58:01.666Z,3.60
2018-09-22T04:59:01.607Z,2.70
2018-09-22T05:00:01.577Z,3.50
2018-09-22T05:01:01.503Z,3.00
2018-09-22T05:02:01.456Z,3.30
2018-09-22T05:03:01.401Z,3.40
2018-09-22T05:04:01.352Z,2.90
2018-09-22T05:05:01.322Z,3.10
2018-09-22T05:06:01.247Z,3.00
2018-09-22T05:07:01.196Z,3.10
2018-09-22T05:08:01.143Z,3.20
2018-09-22T05:09:01.092Z,3.00
2018-09-22T05:10:01.067Z,3.00
2018-09-22T05:11:00.988Z,2.90
2018-09-22T05:12:00.938Z,2.90
2018-09-22T05:13:00.888Z,2.80
2018-09-22T05:14:00.836Z,3.10
2018-09-22T05:15:00.813Z,2.80
2018-09-22T05:16:00.737Z,2.50
2018-09-22T05:17:00.702Z,3.00
2018-09-22T05:18:00.629Z,2.90
2018-09-22T05:19:00.580Z,2.70
2018-09-22T05:20:00.551Z,2.90
2018-09-22T05:21:00.477Z,2.90
2018-09-22T05:22:00.428Z,2.90
2018-09-22T05:23:00.387Z,3.00
2018-09-22T05:24:00.324Z,2.90
2018-09-22T05:25:00.296Z,2.70
2018-09-22T05:26:00.220Z,3.20
2018-09-22T05:27:00.173Z,2.60
2018-09-22T05:28:00.121Z,2.80
2018-09-22T05:29:00.072Z,2.70
2018-09-22T05:30:00.041Z,3.10
2018-09-22T05:30:59.964Z,2.80
2018-09-22T05:31:59.917Z,3.00
2018-09-22T05:32:59.861Z,2.80
2018-09-22T05:33:59.810Z,2.50
2018-09-22T05:34:59.787Z,2.70
2018-09-22T05:35:59.715Z,2.70
2018-09-22T05:36:59.659Z,2.30
2018-09-22T05:37:59.617Z,2.60
2018-09-22T05:38:59.556Z,2.90
2018-09-22T05:39:59.530Z,2.80
2018-09-22T05:40:59.458Z,2.50
2018-09-22T05:41:59.400Z,2.60
2018-09-22T05:42:59.354Z,2.60
2018-09-22T05:43:59.302Z,2.50
2018-09-22T05:44:59.286Z,2.80
2018-09-22T05:45:59.209Z,2.60
2018-09-22T05:46:59.162Z,3.00
2018-09-22T05:47:59.101Z,2.50
2018-09-22T05:48:59.042Z,2.50
2018-09-22T05:49:59.027Z,2.70
2018-09-22T05:50:58.946Z,2.50
2018-09-22T05:51:58.897Z,2.50
2018-09-22T05:52:58.838Z,2.40
2018-09-22T05:53:58.791Z,2.40
2018-09-22T05:54:58.757Z,2.30
2018-09-22T05:55:58.716Z,2.50
2018-09-22T05:56:58.638Z,2.00
2018-09-22T05:57:58.592Z,2.40
2018-09-22T05:58:58.537Z,2.50
2018-09-22T05:59:58.483Z,2.40
2018-09-22T06:00:58.458Z,2.80
2018-09-22T06:01:58.380Z,2.60
2018-09-22T06:02:58.336Z,2.10
2018-09-22T06:03:58.418Z,2.40
2018-09-22T06:04:58.226Z,2.40
2018-09-22T06:05:58.221Z,2.50
2018-09-22T06:06:58.129Z,2.10
2018-09-22T06:07:58.088Z,2.10
2018-09-22T06:08:58.026Z,2.20
2018-09-22T06:09:57.981Z,2.10
2018-09-22T06:10:57.950Z,2.60
2018-09-22T06:11:57.871Z,2.70
2018-09-22T06:12:57.818Z,2.00
2018-09-22T06:13:57.776Z,2.30
2018-09-22T06:14:57.724Z,2.20
2018-09-22T06:15:57.696Z,2.30
2018-09-22T06:16:57.641Z,2.30
2018-09-22T06:17:57.567Z,2.30
2018-09-22T06:18:57.516Z,2.20
2018-09-22T06:19:57.464Z,2.40
2018-09-22T06:20:57.439Z,2.20
2018-09-22T06:21:57.380Z,2.40
2018-09-22T06:22:57.328Z,2.70
2018-09-22T06:23:57.271Z,2.10
2018-09-22T06:24:57.212Z,2.30
2018-09-22T06:25:57.191Z,2.70
2018-09-22T06:26:57.117Z,2.30
2018-09-22T06:27:57.062Z,2.70
2018-09-22T06:28:57.041Z,2.40
2018-09-22T06:29:56.957Z,2.00
2018-09-22T06:30:56.927Z,2.20
2018-09-22T06:31:56.860Z,2.40
2018-09-22T06:32:56.808Z,2.10
2018-09-22T06:33:56.758Z,2.30
2018-09-22T06:34:56.701Z,2.30
2018-09-22T06:35:56.686Z,2.50
2018-09-22T06:36:56.600Z,2.10
2018-09-22T06:37:56.552Z,2.60
2018-09-22T06:38:56.498Z,2.20
2018-09-22T06:39:56.453Z,2.40
2018-09-22T06:40:56.421Z,2.50
2018-09-22T06:41:56.360Z,2.50
2018-09-22T06:42:56.300Z,2.30
2018-09-22T06:43:56.260Z,2.50
2018-09-22T06:44:56.207Z,2.50
2018-09-22T06:45:56.190Z,2.10
2018-09-22T06:46:56.100Z,2.30
2018-09-22T06:47:56.047Z,2.60
2018-09-22T06:48:55.995Z,2.00
2018-09-22T06:49:55.951Z,2.50
2018-09-22T06:50:55.924Z,2.30
2018-09-22T06:51:55.845Z,2.20
2018-09-22T06:52:55.790Z,2.10
2018-09-22T06:53:55.743Z,2.40
2018-09-22T06:54:55.730Z,2.20
2018-09-22T06:55:55.665Z,2.70
2018-09-22T06:56:55.613Z,2.90
2018-09-22T06:57:55.546Z,2.90
2018-09-22T06:58:55.503Z,2.40
2018-09-22T06:59:55.462Z,2.40
2018-09-22T07:00:55.428Z,2.10
2018-09-22T07:01:55.346Z,2.20
2018-09-22T07:02:55.288Z,2.40
2018-09-22T07:03:55.240Z,2.10
2018-09-22T07:04:55.185Z,1.90
2018-09-22T07:05:55.169Z,2.20
2018-09-22T07:06:55.095Z,2.50
2018-09-22T07:07:55.040Z,2.00
2018-09-22T07:08:54.991Z,2.40
2018-09-22T07:09:54.971Z,2.10
2018-09-22T07:10:54.912Z,2.30
2018-09-22T07:11:54.836Z,2.20
2018-09-22T07:12:54.798Z,2.10
2018-09-22T07:13:54.807Z,2.40
2018-09-22T07:14:54.687Z,2.70
2018-09-22T07:15:54.686Z,2.00
2018-09-22T07:16:54.582Z,2.20
2018-09-22T07:17:54.538Z,2.40
2018-09-22T07:18:54.516Z,2.20
2018-09-22T07:19:54.435Z,2.30
2018-09-22T07:20:54.430Z,2.40
2018-09-22T07:21:54.330Z,2.50
2018-09-22T07:22:54.277Z,2.10
2018-09-22T07:23:54.230Z,2.30
2018-09-22T07:24:54.189Z,2.30
2018-09-22T07:25:54.127Z,2.20
2018-09-22T07:26:54.099Z,2.20
2018-09-22T07:27:54.148Z,2.20
2018-09-22T07:28:53.981Z,1.90
2018-09-22T07:29:53.930Z,2.50
2018-09-22T07:30:53.934Z,2.10
2018-09-22T07:31:53.855Z,2.50
2018-09-22T07:32:53.781Z,2.40
2018-09-22T07:33:53.740Z,2.40
2018-09-22T07:34:53.705Z,2.10
2018-09-22T07:35:53.644Z,2.20
2018-09-22T07:36:53.640Z,2.10
2018-09-22T07:37:53.543Z,2.00
2018-09-22T07:38:53.477Z,2.50
2018-09-22T07:39:53.444Z,2.60
2018-09-22T07:40:53.426Z,2.00
2018-09-22T07:41:53.402Z,2.40
2018-09-22T07:42:53.303Z,2.30
2018-09-22T07:43:53.235Z,2.50
2018-09-22T07:44:53.187Z,2.10
2018-09-22T07:45:53.162Z,2.40
2018-09-22T07:46:53.150Z,2.40
2018-09-22T07:47:53.070Z,1.90
2018-09-22T07:48:52.990Z,2.40
2018-09-22T07:49:52.942Z,2.50
2018-09-22T07:50:52.883Z,2.30
2018-09-22T07:51:52.911Z,2.30
2018-09-22T07:52:52.800Z,2.50
2018-09-22T07:53:52.757Z,2.30
2018-09-22T07:54:52.679Z,2.20
2018-09-22T07:55:52.625Z,2.20
2018-09-22T07:56:52.618Z,2.10
2018-09-22T07:57:52.526Z,2.10
2018-09-22T07:58:52.485Z,2.40
2018-09-22T07:59:52.437Z,2.40
2018-09-22T08:00:52.384Z,2.20
2018-09-22T08:01:52.353Z,2.20
2018-09-22T08:02:52.281Z,2.20
2018-09-22T08:03:52.237Z,2.40
2018-09-22T08:04:52.184Z,1.90
2018-09-22T08:05:52.130Z,2.20
2018-09-22T08:06:52.105Z,2.40
2018-09-22T08:07:52.038Z,2.70
2018-09-22T08:08:52.635Z,2.00
2018-09-22T08:09:51.928Z,2.40
2018-09-22T08:10:51.877Z,2.30
2018-09-22T08:11:51.861Z,1.90
2018-09-22T08:12:51.789Z,2.50
2018-09-22T08:13:51.737Z,2.50
2018-09-22T08:14:51.689Z,2.10
2018-09-22T08:15:51.631Z,2.20
2018-09-22T08:16:51.602Z,2.20
2018-09-22T08:17:51.536Z,2.00
2018-09-22T08:18:51.500Z,2.20
2018-09-22T08:19:51.444Z,2.20
2018-09-22T08:20:51.389Z,2.00
2018-09-22T08:21:51.365Z,2.20
2018-09-22T08:22:51.291Z,2.10
2018-09-22T08:23:51.230Z,2.40
2018-09-22T08:24:51.193Z,1.90
2018-09-22T08:25:51.146Z,2.10
2018-09-22T08:26:51.114Z,2.00
2018-09-22T08:27:51.033Z,2.50
2018-09-22T08:28:50.982Z,2.10
2018-09-22T08:29:50.933Z,2.00
2018-09-22T08:30:50.887Z,2.20
2018-09-22T08:31:50.882Z,2.40
2018-09-22T08:32:50.793Z,1.90
2018-09-22T08:33:50.745Z,1.80
2018-09-22T08:34:50.693Z,2.30
2018-09-22T08:35:50.638Z,1.90
2018-09-22T08:36:50.665Z,2.30
2018-09-22T08:37:50.549Z,1.90
2018-09-22T08:38:50.487Z,2.10
2018-09-22T08:39:50.450Z,2.20
2018-09-22T08:40:50.388Z,2.20
2018-09-22T08:41:50.336Z,2.40
2018-09-22T08:42:50.318Z,2.10
2018-09-22T08:43:50.279Z,2.00
2018-09-22T08:44:50.223Z,1.90
2018-09-22T08:45:50.153Z,1.90
2018-09-22T08:46:50.095Z,2.10
2018-09-22T08:47:50.087Z,2.80
2018-09-22T08:48:50.012Z,1.90
2018-09-22T08:49:49.980Z,1.70
2018-09-22T08:50:49.909Z,1.90
2018-09-22T08:51:49.848Z,1.90
2018-09-22T08:52:49.822Z,2.00
2018-09-22T08:53:49.766Z,2.10
2018-09-22T08:54:49.727Z,2.00
2018-09-22T08:55:49.659Z,1.80
2018-09-22T08:56:49.625Z,1.90
2018-09-22T08:57:49.604Z,2.00
2018-09-22T08:58:49.523Z,1.80
2018-09-22T08:59:49.454Z,1.70
2018-09-22T09:00:49.406Z,2.00
2018-09-22T09:01:49.519Z,1.80
2018-09-22T09:02:49.337Z,1.80
2018-09-22T09:03:49.267Z,2.10
2018-09-22T09:04:49.313Z,2.00
2018-09-22T09:05:49.227Z,2.00
2018-09-22T09:06:49.226Z,2.30
2018-09-22T09:07:49.083Z,1.90
2018-09-22T09:08:49.027Z,2.00
2018-09-22T09:09:48.983Z,2.20
2018-09-22T09:10:48.911Z,1.90
2018-09-22T09:11:48.874Z,1.80
2018-09-22T09:12:48.847Z,1.90
2018-09-22T09:13:48.822Z,1.80
2018-09-22T09:14:48.712Z,2.00
2018-09-22T09:15:48.680Z,1.70
2018-09-22T09:16:48.616Z,2.20
2018-09-22T09:17:48.731Z,1.70
2018-09-22T09:18:48.516Z,1.90
2018-09-22T09:19:48.565Z,1.70
2018-09-22T09:20:48.451Z,1.90
2018-09-22T09:21:48.383Z,1.60
2018-09-22T09:22:48.344Z,1.90
2018-09-22T09:23:48.287Z,1.80
2018-09-22T09:24:48.234Z,2.10
2018-09-22T09:25:48.170Z,1.40
2018-09-22T09:26:48.129Z,1.80
2018-09-22T09:27:48.103Z,1.70
2018-09-22T09:28:48.049Z,2.00
2018-09-22T09:29:47.982Z,1.70
2018-09-22T09:30:47.933Z,2.00
2018-09-22T09:31:47.880Z,2.00
2018-09-22T09:32:47.867Z,2.10
2018-09-22T09:33:47.844Z,1.80
2018-09-22T09:34:47.748Z,1.70
2018-09-22T09:35:47.721Z,1.60
2018-09-22T09:36:47.659Z,1.60
2018-09-22T09:37:47.636Z,2.00
2018-09-22T09:38:47.616Z,2.10
2018-09-22T09:39:47.500Z,1.70
2018-09-22T09:40:47.446Z,1.80
2018-09-22T09:41:47.401Z,1.80
2018-09-22T09:42:47.385Z,1.80
2018-09-22T09:43:47.356Z,2.40
2018-09-22T09:44:47.241Z,2.10
2018-09-22T09:45:47.193Z,2.00
2018-09-22T09:46:47.148Z,1.80
2018-09-22T09:47:47.124Z,1.80
2018-09-22T09:48:47.042Z,1.90
2018-09-22T09:49:46.996Z,1.90
2018-09-22T09:50:46.955Z,2.10
2018-09-22T09:51:46.947Z,1.80
2018-09-22T09:52:46.892Z,1.90
2018-09-22T09:53:46.808Z,1.80
2018-09-22T09:54:46.821Z,1.60
2018-09-22T09:55:46.725Z,2.10
2018-09-22T09:56:46.685Z,1.70
2018-09-22T09:57:46.676Z,1.60
2018-09-22T09:58:46.571Z,2.00
2018-09-22T09:59:46.537Z,2.20
2018-09-22T10:00:46.487Z,2.00
2018-09-22T10:01:46.408Z,1.90
2018-09-22T10:02:46.490Z,1.80
2018-09-22T10:03:46.353Z,1.90
2018-09-22T10:04:46.343Z,2.10
2018-09-22T10:05:46.279Z,2.50
2018-09-22T10:06:46.199Z,2.20
2018-09-22T10:07:46.214Z,2.20
2018-09-22T10:08:46.106Z,2.30
2018-09-22T10:09:46.022Z,1.90
2018-09-22T10:10:46.000Z,2.40
2018-09-22T10:11:45.949Z,2.30
2018-09-22T10:12:45.923Z,3.60
2018-09-22T10:13:45.868Z,2.60
2018-09-22T10:14:45.776Z,2.20
2018-09-22T10:15:45.716Z,2.10
2018-09-22T10:16:45.671Z,2.00
2018-09-22T10:17:45.653Z,2.10
2018-09-22T10:18:45.656Z,2.20
2018-09-22T10:19:45.575Z,2.20
2018-09-22T10:20:45.500Z,2.10
2018-09-22T10:21:45.438Z,2.40
2018-09-22T10:22:45.387Z,2.20
2018-09-22T10:23:45.403Z,2.20
2018-09-22T10:24:45.296Z,2.20
2018-09-22T10:25:45.237Z,1.70
2018-09-22T10:26:45.211Z,2.30
2018-09-22T10:27:45.157Z,1.90
2018-09-22T10:28:45.163Z,2.20
2018-09-22T10:29:45.044Z,2.00
2018-09-22T10:30:44.994Z,1.90
2018-09-22T10:31:44.952Z,1.90
2018-09-22T10:32:44.910Z,1.90
2018-09-22T10:33:44.890Z,2.00
2018-09-22T10:34:44.817Z,1.70
2018-09-22T10:35:44.782Z,1.80
2018-09-22T10:36:44.710Z,2.20
2018-09-22T10:37:44.687Z,1.80
2018-09-22T10:38:44.662Z,1.90
2018-09-22T10:39:44.598Z,2.10
2018-09-22T10:40:44.531Z,2.10
2018-09-22T10:41:44.477Z,2.30
2018-09-22T10:42:44.432Z,2.50
2018-09-22T10:43:44.440Z,2.60
2018-09-22T10:44:44.315Z,2.50
2018-09-22T10:45:44.327Z,2.30
2018-09-22T10:46:44.239Z,2.80
2018-09-22T10:47:44.186Z,2.00
2018-09-22T10:48:44.147Z,1.90
2018-09-22T10:49:44.071Z,2.20
2018-09-22T10:50:44.024Z,2.10
2018-09-22T10:51:43.975Z,2.10
2018-09-22T10:52:43.956Z,1.90
2018-09-22T10:53:43.962Z,1.90
2018-09-22T10:54:43.824Z,1.70
2018-09-22T10:55:43.785Z,2.10
2018-09-22T10:56:43.728Z,2.00
2018-09-22T10:57:43.684Z,2.50
2018-09-22T10:58:43.672Z,2.00
2018-09-22T10:59:43.582Z,1.60
2018-09-22T11:00:43.526Z,1.90
2018-09-22T11:01:43.481Z,1.80
2018-09-22T11:02:43.426Z,2.00
2018-09-22T11:03:43.451Z,2.30
2018-09-22T11:04:43.337Z,2.10
2018-09-22T11:05:43.283Z,1.90
2018-09-22T11:06:43.239Z,2.00
2018-09-22T11:07:43.200Z,1.90
2018-09-22T11:08:43.159Z,2.10
2018-09-22T11:09:43.091Z,1.80
2018-09-22T11:10:43.040Z,2.00
2018-09-22T11:11:42.997Z,1.80
2018-09-22T11:12:42.945Z,1.80
2018-09-22T11:13:42.925Z,1.80
2018-09-22T11:14:42.854Z,1.80
2018-09-22T11:15:42.815Z,1.80
2018-09-22T11:16:42.758Z,2.10
2018-09-22T11:17:42.697Z,2.00
2018-09-22T11:18:42.690Z,2.00
2018-09-22T11:19:42.617Z,1.80
2018-09-22T11:20:42.554Z,1.90
2018-09-22T11:21:42.506Z,1.80
2018-09-22T11:22:42.464Z,1.90
2018-09-22T11:23:42.470Z,1.90
2018-09-22T11:24:42.368Z,1.90
2018-09-22T11:25:42.311Z,1.50
2018-09-22T11:26:42.265Z,2.10
2018-09-22T11:27:42.217Z,1.70
2018-09-22T11:28:42.199Z,1.90
2018-09-22T11:29:42.135Z,1.80
2018-09-22T11:30:42.064Z,2.30
2018-09-22T11:31:42.030Z,1.90
2018-09-22T11:32:41.989Z,2.40
2018-09-22T11:33:41.957Z,2.10
2018-09-22T11:34:41.880Z,2.00
2018-09-22T11:35:41.840Z,2.00
2018-09-22T11:36:41.775Z,2.00
2018-09-22T11:37:41.750Z,1.90
2018-09-22T11:38:41.726Z,2.00
2018-09-22T11:39:41.657Z,2.00
2018-09-22T11:40:41.587Z,2.00
2018-09-22T11:41:41.534Z,2.10
2018-09-22T11:42:41.485Z,2.00
2018-09-22T11:43:41.438Z,2.00
2018-09-22T11:44:41.442Z,1.70
2018-09-22T11:45:41.345Z,1.90
2018-09-22T11:46:41.296Z,1.70
2018-09-22T11:47:41.248Z,1.90
2018-09-22T11:48:41.215Z,2.10
2018-09-22T11:49:41.187Z,1.80
2018-09-22T11:50:41.117Z,2.10
2018-09-22T11:51:41.075Z,1.70
2018-09-22T11:52:40.999Z,2.00
2018-09-22T11:53:40.949Z,1.90
2018-09-22T11:54:40.939Z,1.80
2018-09-22T11:55:40.856Z,1.90
2018-09-22T11:56:40.806Z,1.80
2018-09-22T11:57:40.781Z,2.00
2018-09-22T11:58:40.732Z,2.10
2018-09-22T11:59:40.696Z,1.60
2018-09-22T12:00:40.629Z,2.10
2018-09-22T12:01:40.566Z,1.70
2018-09-22T12:02:40.524Z,1.90
2018-09-22T12:03:40.470Z,1.70
2018-09-22T12:04:40.454Z,1.60
2018-09-22T12:05:40.376Z,1.70
2018-09-22T12:06:40.363Z,1.90
2018-09-22T12:07:40.284Z,1.40
2018-09-22T12:08:40.227Z,1.70
2018-09-22T12:09:40.211Z,1.70
2018-09-22T12:10:40.128Z,1.50
2018-09-22T12:11:40.082Z,1.40
2018-09-22T12:12:40.035Z,1.70
2018-09-22T12:13:39.991Z,1.50
2018-09-22T12:14:39.979Z,1.50
2018-09-22T12:15:39.927Z,1.40
2018-09-22T12:16:39.849Z,1.50
2018-09-22T12:17:39.806Z,1.60
2018-09-22T12:18:39.744Z,1.60
2018-09-22T12:19:39.715Z,1.50
2018-09-22T12:20:39.660Z,1.60
2018-09-22T12:21:39.603Z,1.60
2018-09-22T12:22:39.557Z,1.70
2018-09-22T12:23:39.515Z,1.60
2018-09-22T12:24:39.471Z,1.90
2018-09-22T12:25:39.412Z,1.60
2018-09-22T12:26:39.357Z,1.70
2018-09-22T12:27:39.339Z,1.50
2018-09-22T12:28:39.267Z,1.70
2018-09-22T12:29:39.233Z,1.90
2018-09-22T12:30:39.168Z,1.20
2018-09-22T12:31:39.123Z,1.30
2018-09-22T12:32:39.069Z,1.50
2018-09-22T12:33:39.024Z,1.60
2018-09-22T12:34:39.002Z,1.40
2018-09-22T12:35:38.917Z,1.50
2018-09-22T12:36:38.890Z,1.30
2018-09-22T12:37:38.827Z,1.60
2018-09-22T12:38:38.776Z,1.40
2018-09-22T12:39:38.761Z,1.50
2018-09-22T12:40:38.692Z,1.50
2018-09-22T12:41:38.633Z,1.70
2018-09-22T12:42:38.602Z,1.40
2018-09-22T12:43:38.550Z,1.30
2018-09-22T12:44:38.518Z,1.30
2018-09-22T12:45:38.446Z,1.40
2018-09-22T12:46:38.394Z,1.40
2018-09-22T12:47:38.355Z,1.40
2018-09-22T12:48:38.293Z,1.30
2018-09-22T12:49:38.280Z,1.50
2018-09-22T12:50:38.201Z,1.20
2018-09-22T12:51:38.149Z,1.40
2018-09-22T12:52:38.109Z,1.30
2018-09-22T12:53:38.084Z,1.20
2018-09-22T12:54:38.024Z,1.30
2018-09-22T12:55:37.951Z,1.30
2018-09-22T12:56:37.905Z,1.20
2018-09-22T12:57:37.861Z,1.40
2018-09-22T12:58:37.807Z,1.40
2018-09-22T12:59:37.806Z,1.10
2018-09-22T13:00:37.703Z,1.60
2018-09-22T13:01:37.668Z,1.10
2018-09-22T13:02:37.622Z,1.40
2018-09-22T13:03:37.595Z,1.20
2018-09-22T13:04:37.512Z,1.10
2018-09-22T13:05:37.499Z,1.30
2018-09-22T13:06:37.421Z,1.30
2018-09-22T13:07:37.389Z,1.40
2018-09-22T13:08:37.346Z,1.20
2018-09-22T13:09:37.284Z,1.20
2018-09-22T13:10:37.285Z,1.20
2018-09-22T13:11:37.230Z,1.10
2018-09-22T13:12:37.132Z,1.40
2018-09-22T13:13:37.137Z,1.40
2018-09-22T13:14:37.074Z,1.20
2018-09-22T13:15:37.008Z,1.20
2018-09-22T13:16:36.936Z,1.20
2018-09-22T13:17:36.887Z,1.20